createdAt,value
2023-03-06T00:04:23.310Z,68.68
2023-03-06T00:14:27.094Z,68.97
2023-03-06T00:24:29.742Z,68.65
2023-03-06T00:34:33.533Z,68.48
2023-03-06T00:44:37.068Z,68.46
2023-03-06T00:54:41.188Z,67.89
2023-03-06T01:04:43.750Z,67.37
2023-03-06T01:14:47.592Z,67.41
2023-03-06T01:24:50.181Z,67.38
2023-03-06T01:34:54.045Z,67.20
2023-03-06T01:45:00.119Z,66.94
2023-03-06T01:55:06.498Z,66.95
2023-03-06T02:05:09.249Z,66.61
2023-03-06T02:15:14.325Z,66.84
2023-03-06T02:25:27.538Z,66.20
2023-03-06T02:35:31.244Z,66.00
2023-03-06T02:45:36.919Z,65.61
2023-03-06T02:55:39.385Z,64.73
2023-03-06T03:05:43.344Z,64.83
2023-03-06T03:15:46.087Z,65.08
2023-03-06T03:25:49.966Z,64.16
2023-03-06T03:35:57.302Z,64.17
2023-03-06T03:46:01.103Z,64.08
2023-03-06T03:56:03.761Z,64.20
2023-03-06T04:06:08.235Z,64.24
2023-03-06T04:16:10.903Z,64.94
2023-03-06T04:26:14.815Z,63.99
2023-03-06T04:36:21.801Z,63.66
2023-03-06T04:46:25.705Z,63.63
2023-03-06T04:56:28.219Z,63.80
2023-03-06T05:06:32.061Z,64.12
2023-03-06T05:16:34.551Z,64.46
2023-03-06T05:26:38.347Z,64.45
2023-03-06T05:36:40.878Z,64.64
2023-03-06T05:46:44.682Z,64.97
2023-03-06T05:56:47.207Z,64.85
2023-03-06T06:06:54.566Z,64.61
2023-03-06T06:16:57.145Z,65.08
2023-03-06T06:27:03.763Z,66.07
2023-03-06T06:37:06.640Z,66.26
2023-03-06T06:47:26.358Z,66.99
2023-03-06T06:57:28.995Z,66.63
2023-03-06T07:07:34.452Z,65.84
2023-03-06T07:17:36.924Z,65.82
2023-03-06T07:27:40.818Z,65.94
2023-03-06T07:37:43.358Z,65.81
2023-03-06T07:47:47.322Z,65.11
2023-03-06T07:57:50.570Z,65.35
2023-03-06T08:07:54.374Z,65.05
2023-03-06T08:17:56.956Z,65.75
2023-03-06T08:28:01.069Z,64.98
2023-03-06T08:38:03.547Z,64.64
2023-03-06T08:48:09.382Z,63.59
2023-03-06T08:58:11.913Z,63.12
2023-03-06T09:08:15.821Z,63.79
2023-03-06T09:18:18.372Z,63.54
2023-03-06T09:28:22.553Z,63.79
2023-03-06T09:38:26.147Z,63.92
2023-03-06T09:48:37.870Z,62.96
2023-03-06T09:58:43.175Z,62.13
2023-03-06T10:08:50.130Z,61.14
2023-03-06T10:18:52.875Z,59.40
2023-03-06T10:29:04.000Z,59.11
2023-03-06T10:39:11.592Z,60.17
2023-03-06T10:49:25.921Z,60.76
2023-03-06T10:59:29.361Z,60.88
2023-03-06T11:09:33.413Z,58.47
2023-03-06T11:19:36.012Z,57.58
2023-03-06T11:29:43.073Z,57.81
2023-03-06T11:39:49.368Z,56.99
2023-03-06T11:49:56.704Z,56.75
2023-03-06T12:00:12.499Z,56.85
2023-03-06T12:10:19.308Z,55.78
2023-03-06T12:20:28.632Z,55.54
2023-03-06T12:30:59.087Z,54.82
2023-03-06T12:41:07.783Z,53.26
2023-03-06T12:51:14.059Z,52.69
2023-03-06T13:01:23.964Z,52.00
2023-03-06T13:11:40.819Z,51.88
2023-03-06T13:22:10.202Z,52.15
2023-03-06T13:32:18.384Z,51.61
2023-03-06T13:42:27.888Z,51.64
2023-03-06T13:52:36.715Z,51.92
2023-03-06T14:02:54.616Z,52.00
2023-03-06T14:13:01.764Z,51.61
2023-03-06T14:23:17.424Z,51.78
2023-03-06T14:33:28.282Z,51.77
2023-03-06T14:43:31.693Z,51.97
2023-03-06T14:53:35.611Z,51.65
2023-03-06T15:03:42.950Z,51.69
2023-03-06T15:14:00.687Z,52.79
2023-03-06T15:24:03.187Z,54.27
2023-03-06T15:34:16.956Z,55.18
2023-03-06T15:44:19.525Z,56.12
2023-03-06T15:54:23.328Z,56.52
2023-03-06T16:04:27.565Z,57.75
2023-03-06T16:14:31.488Z,58.77
2023-03-06T16:24:33.934Z,59.81
2023-03-06T16:34:37.709Z,60.40
2023-03-06T16:44:40.137Z,60.49
2023-03-06T16:54:44.779Z,59.74
2023-03-06T17:04:50.689Z,60.71
2023-03-06T17:14:54.533Z,59.50
2023-03-06T17:24:56.984Z,60.22
2023-03-06T17:35:00.813Z,60.81
2023-03-06T17:45:03.364Z,61.60
2023-03-06T17:55:08.103Z,61.73
2023-03-06T18:05:14.686Z,61.86
2023-03-06T18:15:18.719Z,62.77
2023-03-06T18:25:21.190Z,62.49
2023-03-06T18:35:28.019Z,62.80
2023-03-06T18:45:30.634Z,62.71
2023-03-06T18:55:51.099Z,63.01
2023-03-06T19:05:53.702Z,62.89
2023-03-06T19:15:57.697Z,62.97
2023-03-06T19:26:00.391Z,63.75
2023-03-06T19:36:04.315Z,64.88
2023-03-06T19:46:06.902Z,65.45
2023-03-06T19:56:12.882Z,66.20
2023-03-06T20:06:16.479Z,67.36
2023-03-06T20:16:20.696Z,66.98
2023-03-06T20:26:23.524Z,66.13
2023-03-06T20:36:28.945Z,66.03
2023-03-06T20:46:32.300Z,65.98
2023-03-06T20:56:36.929Z,66.08
2023-03-06T21:06:39.443Z,65.56
2023-03-06T21:16:43.786Z,65.08
2023-03-06T21:26:46.339Z,64.90
2023-03-06T21:36:51.060Z,65.00
2023-03-06T21:46:53.596Z,64.39
2023-03-06T21:56:57.599Z,65.48
2023-03-06T22:07:00.103Z,64.79
2023-03-06T22:17:03.918Z,64.97
2023-03-06T22:27:06.427Z,64.45
2023-03-06T22:37:10.219Z,63.87
2023-03-06T22:47:12.660Z,64.44
2023-03-06T22:57:16.460Z,63.79
2023-03-06T23:07:19.205Z,63.01
2023-03-06T23:17:23.105Z,63.04
2023-03-06T23:27:25.511Z,63.72
2023-03-06T23:37:29.626Z,63.89
2023-03-06T23:47:32.448Z,63.66
2023-03-06T23:57:36.214Z,63.46
